sensor_id;sensor_type;location;lat;lon;timestamp;pressure;altitude;pressure_sealevel;temperature;humidity
11444;BME280;5778;47.856;12.154;2023-03-21T00:00:01;96551.91;;;8.63;100.00
11444;BME280;5778;47.856;12.154;2023-03-21T00:02:30;96563.88;;;8.66;100.00
11444;BME280;5778;47.856;12.154;2023-03-21T00:04:59;96556.19;;;8.64;100.00
11444;BME280;5778;47.856;12.154;2023-03-21T00:07:26;96555.34;;;8.64;100.00
11444;BME280;5778;47.856;12.154;2023-03-21T00:09:53;96548.78;;;8.66;100.00
11444;BME280;5778;47.856;12.154;2023-03-21T00:12:20;96544.75;;;8.64;100.00
11444;BME280;5778;47.856;12.154;2023-03-21T00:15:09;96544.09;;;8.57;100.00
11444;BME280;5778;47.856;12.154;2023-03-21T00:17:37;96543.59;;;8.60;100.00
11444;BME280;5778;47.856;12.154;2023-03-21T00:20:08;96539.34;;;8.59;100.00
11444;BME280;5778;47.856;12.154;2023-03-21T00:22:51;96539.44;;;8.64;100.00
11444;BME280;5778;47.856;12.154;2023-03-21T00:25:18;96534.97;;;8.64;100.00
11444;BME280;5778;47.856;12.154;2023-03-21T00:27:45;96533.94;;;8.54;100.00
11444;BME280;5778;47.856;12.154;2023-03-21T00:30:13;96529.13;;;8.51;100.00
11444;BME280;5778;47.856;12.154;2023-03-21T00:32:46;96530.34;;;8.60;100.00
11444;BME280;5778;47.856;12.154;2023-03-21T00:35:15;96536.34;;;8.67;100.00
11444;BME280;5778;47.856;12.154;2023-03-21T00:37:43;96523.41;;;8.70;100.00
11444;BME280;5778;47.856;12.154;2023-03-21T00:40:11;96524.56;;;8.74;100.00
11444;BME280;5778;47.856;12.154;2023-03-21T00:42:41;96519.50;;;8.73;100.00
11444;BME280;5778;47.856;12.154;2023-03-21T00:45:09;96519.59;;;8.78;100.00
11444;BME280;5778;47.856;12.154;2023-03-21T00:47:36;96511.66;;;8.78;100.00
11444;BME280;5778;47.856;12.154;2023-03-21T00:50:05;96521.75;;;8.81;100.00
11444;BME280;5778;47.856;12.154;2023-03-21T00:52:34;96518.78;;;8.77;100.00
11444;BME280;5778;47.856;12.154;2023-03-21T00:55:01;96517.06;;;8.83;100.00
11444;BME280;5778;47.856;12.154;2023-03-21T00:57:28;96518.44;;;8.74;100.00
11444;BME280;5778;47.856;12.154;2023-03-21T00:59:55;96504.47;;;8.78;100.00
11444;BME280;5778;47.856;12.154;2023-03-21T01:02:23;96496.78;;;8.77;100.00
11444;BME280;5778;47.856;12.154;2023-03-21T01:04:53;96497.25;;;8.74;100.00
11444;BME280;5778;47.856;12.154;2023-03-21T01:07:20;96499.22;;;8.67;100.00
11444;BME280;5778;47.856;12.154;2023-03-21T01:09:48;96493.34;;;8.65;100.00
11444;BME280;5778;47.856;12.154;2023-03-21T01:12:17;96496.25;;;8.63;100.00
11444;BME280;5778;47.856;12.154;2023-03-21T01:14:44;96492.28;;;8.66;100.00
11444;BME280;5778;47.856;12.154;2023-03-21T01:17:11;96494.38;;;8.64;100.00
11444;BME280;5778;47.856;12.154;2023-03-21T01:19:38;96493.81;;;8.62;100.00
11444;BME280;5778;47.856;12.154;2023-03-21T01:22:05;96491.41;;;8.60;100.00
11444;BME280;5778;47.856;12.154;2023-03-21T01:25:02;96492.22;;;8.61;100.00
11444;BME280;5778;47.856;12.154;2023-03-21T01:27:29;96487.94;;;8.60;100.00
11444;BME280;5778;47.856;12.154;2023-03-21T01:29:56;96496.72;;;8.60;100.00
11444;BME280;5778;47.856;12.154;2023-03-21T01:32:23;96486.56;;;8.57;100.00
11444;BME280;5778;47.856;12.154;2023-03-21T01:34:50;96486.91;;;8.61;100.00
11444;BME280;5778;47.856;12.154;2023-03-21T01:37:19;96484.81;;;8.63;100.00
11444;BME280;5778;47.856;12.154;2023-03-21T01:39:49;96486.09;;;8.60;100.00
11444;BME280;5778;47.856;12.154;2023-03-21T01:42:17;96484.28;;;8.61;100.00
11444;BME280;5778;47.856;12.154;2023-03-21T01:45:00;96483.78;;;8.64;100.00
11444;BME280;5778;47.856;12.154;2023-03-21T01:47:36;96480.09;;;8.65;100.00
11444;BME280;5778;47.856;12.154;2023-03-21T01:50:18;96476.31;;;8.61;100.00
11444;BME280;5778;47.856;12.154;2023-03-21T01:53:26;96473.75;;;8.66;100.00
11444;BME280;5778;47.856;12.154;2023-03-21T01:55:56;96470.53;;;8.64;100.00
11444;BME280;5778;47.856;12.154;2023-03-21T01:58:46;96464.19;;;8.65;100.00
11444;BME280;5778;47.856;12.154;2023-03-21T02:01:27;96467.22;;;8.57;100.00
11444;BME280;5778;47.856;12.154;2023-03-21T02:03:57;96464.94;;;8.49;100.00
11444;BME280;5778;47.856;12.154;2023-03-21T02:07:04;96463.91;;;8.50;100.00
11444;BME280;5778;47.856;12.154;2023-03-21T02:09:54;96459.44;;;8.39;100.00
11444;BME280;5778;47.856;12.154;2023-03-21T02:12:22;96456.66;;;8.45;100.00
11444;BME280;5778;47.856;12.154;2023-03-21T02:15:08;96458.69;;;8.55;100.00
11444;BME280;5778;47.856;12.154;2023-03-21T02:18:16;96446.47;;;8.54;100.00
11444;BME280;5778;47.856;12.154;2023-03-21T02:27:15;96445.25;;;8.45;100.00
11444;BME280;5778;47.856;12.154;2023-03-21T02:30:18;96440.22;;;8.32;100.00
11444;BME280;5778;47.856;12.154;2023-03-21T02:36:14;96440.09;;;8.27;100.00
11444;BME280;5778;47.856;12.154;2023-03-21T02:38:52;96440.25;;;8.20;100.00
11444;BME280;5778;47.856;12.154;2023-03-21T02:41:25;96439.84;;;8.17;100.00
11444;BME280;5778;47.856;12.154;2023-03-21T02:44:18;96437.59;;;8.20;100.00
11444;BME280;5778;47.856;12.154;2023-03-21T02:46:50;96428.03;;;8.08;100.00
11444;BME280;5778;47.856;12.154;2023-03-21T02:49:22;96433.00;;;8.04;100.00
11444;BME280;5778;47.856;12.154;2023-03-21T02:51:50;96439.22;;;7.98;100.00
11444;BME280;5778;47.856;12.154;2023-03-21T02:54:23;96439.56;;;8.02;100.00
11444;BME280;5778;47.856;12.154;2023-03-21T02:56:53;96441.63;;;8.00;100.00
11444;BME280;5778;47.856;12.154;2023-03-21T02:59:23;96431.97;;;7.94;100.00
11444;BME280;5778;47.856;12.154;2023-03-21T03:01:55;96433.13;;;7.98;100.00
11444;BME280;5778;47.856;12.154;2023-03-21T03:04:31;96436.59;;;7.98;100.00
11444;BME280;5778;47.856;12.154;2023-03-21T03:07:11;96438.41;;;7.98;100.00
11444;BME280;5778;47.856;12.154;2023-03-21T03:09:53;96431.41;;;8.03;100.00
11444;BME280;5778;47.856;12.154;2023-03-21T03:12:31;96432.41;;;8.02;100.00
11444;BME280;5778;47.856;12.154;2023-03-21T03:15:07;96436.69;;;8.03;100.00
11444;BME280;5778;47.856;12.154;2023-03-21T03:17:49;96428.97;;;8.02;100.00
11444;BME280;5778;47.856;12.154;2023-03-21T03:20:24;96434.72;;;7.99;100.00
11444;BME280;5778;47.856;12.154;2023-03-21T03:23:17;96439.13;;;7.93;100.00
11444;BME280;5778;47.856;12.154;2023-03-21T03:25:51;96437.59;;;7.97;100.00
11444;BME280;5778;47.856;12.154;2023-03-21T03:28:22;96437.38;;;7.99;100.00
11444;BME280;5778;47.856;12.154;2023-03-21T03:30:52;96436.59;;;7.98;100.00
11444;BME280;5778;47.856;12.154;2023-03-21T03:33:39;96439.56;;;8.02;100.00
11444;BME280;5778;47.856;12.154;2023-03-21T03:36:10;96426.31;;;8.02;100.00
11444;BME280;5778;47.856;12.154;2023-03-21T03:38:39;96431.84;;;8.00;100.00
11444;BME280;5778;47.856;12.154;2023-03-21T03:41:11;96434.03;;;8.03;100.00
11444;BME280;5778;47.856;12.154;2023-03-21T03:44:19;96439.56;;;8.02;100.00
11444;BME280;5778;47.856;12.154;2023-03-21T03:46:58;96437.25;;;7.94;100.00
11444;BME280;5778;47.856;12.154;2023-03-21T03:49:30;96438.88;;;7.95;100.00
11444;BME280;5778;47.856;12.154;2023-03-21T03:52:01;96433.50;;;7.90;100.00
11444;BME280;5778;47.856;12.154;2023-03-21T03:54:50;96432.34;;;7.86;100.00
11444;BME280;5778;47.856;12.154;2023-03-21T03:57:23;96439.78;;;7.89;100.00
11444;BME280;5778;47.856;12.154;2023-03-21T03:59:51;96431.84;;;7.89;100.00
11444;BME280;5778;47.856;12.154;2023-03-21T04:02:49;96436.34;;;7.88;100.00
11444;BME280;5778;47.856;12.154;2023-03-21T04:05:21;96437.03;;;7.84;100.00
11444;BME280;5778;47.856;12.154;2023-03-21T04:07:48;96435.09;;;7.91;100.00
11444;BME280;5778;47.856;12.154;2023-03-21T04:10:17;96430.91;;;7.95;100.00
11444;BME280;5778;47.856;12.154;2023-03-21T04:12:53;96434.38;;;7.95;100.00
11444;BME280;5778;47.856;12.154;2023-03-21T04:15:39;96431.97;;;7.94;100.00
11444;BME280;5778;47.856;12.154;2023-03-21T04:18:12;96429.78;;;7.91;100.00
11444;BME280;5778;47.856;12.154;2023-03-21T04:20:39;96430.38;;;7.93;100.00
11444;BME280;5778;47.856;12.154;2023-03-21T04:23:27;96428.28;;;7.95;100.00
11444;BME280;5778;47.856;12.154;2023-03-21T04:25:54;96432.56;;;7.96;100.00
11444;BME280;5778;47.856;12.154;2023-03-21T04:28:22;96433.00;;;7.93;100.00
11444;BME280;5778;47.856;12.154;2023-03-21T04:31:09;96428.66;;;7.87;100.00
11444;BME280;5778;47.856;12.154;2023-03-21T04:33:44;96436.03;;;7.85;100.00
11444;BME280;5778;47.856;12.154;2023-03-21T04:36:12;96433.94;;;7.87;100.00
11444;BME280;5778;47.856;12.154;2023-03-21T04:38:55;96433.81;;;7.82;100.00
11444;BME280;5778;47.856;12.154;2023-03-21T04:41:27;96436.69;;;7.80;100.00
11444;BME280;5778;47.856;12.154;2023-03-21T04:44:03;96439.69;;;7.84;100.00
11444;BME280;5778;47.856;12.154;2023-03-21T04:46:30;96435.44;;;7.83;100.00
11444;BME280;5778;47.856;12.154;2023-03-21T04:48:58;96431.84;;;7.89;100.00
11444;BME280;5778;47.856;12.154;2023-03-21T04:51:25;96432.44;;;7.91;100.00
11444;BME280;5778;47.856;12.154;2023-03-21T04:53:58;96427.94;;;7.91;100.00
11444;BME280;5778;47.856;12.154;2023-03-21T04:56:26;96431.06;;;7.88;100.00
11444;BME280;5778;47.856;12.154;2023-03-21T04:58:57;96428.09;;;7.85;100.00
11444;BME280;5778;47.856;12.154;2023-03-21T05:01:26;96437.28;;;7.71;100.00
11444;BME280;5778;47.856;12.154;2023-03-21T05:04:02;96434.06;;;7.69;100.00
11444;BME280;5778;47.856;12.154;2023-03-21T05:06:31;96436.59;;;7.75;100.00
11444;BME280;5778;47.856;12.154;2023-03-21T05:09:00;96436.34;;;7.77;100.00
11444;BME280;5778;47.856;12.154;2023-03-21T05:11:31;96442.25;;;7.79;100.00
11444;BME280;5778;47.856;12.154;2023-03-21T05:17:16;96440.50;;;7.73;100.00
11444;BME280;5778;47.856;12.154;2023-03-21T05:19:49;96438.44;;;7.75;100.00
11444;BME280;5778;47.856;12.154;2023-03-21T05:22:18;96432.22;;;7.81;100.00
11444;BME280;5778;47.856;12.154;2023-03-21T05:25:06;96437.97;;;7.78;100.00
11444;BME280;5778;47.856;12.154;2023-03-21T05:28:00;96432.66;;;7.78;100.00
11444;BME280;5778;47.856;12.154;2023-03-21T05:30:29;96421.28;;;7.77;100.00
11444;BME280;5778;47.856;12.154;2023-03-21T05:36:22;96433.38;;;7.85;100.00
11444;BME280;5778;47.856;12.154;2023-03-21T05:38:49;96434.75;;;7.87;100.00
11444;BME280;5778;47.856;12.154;2023-03-21T05:41:16;96428.41;;;7.88;100.00
11444;BME280;5778;47.856;12.154;2023-03-21T05:44:09;96429.69;;;7.86;100.00
11444;BME280;5778;47.856;12.154;2023-03-21T05:46:37;96432.78;;;7.94;100.00
11444;BME280;5778;47.856;12.154;2023-03-21T05:49:05;96430.59;;;7.91;100.00
11444;BME280;5778;47.856;12.154;2023-03-21T05:51:34;96430.56;;;8.03;100.00
11444;BME280;5778;47.856;12.154;2023-03-21T05:54:32;96432.19;;;8.04;100.00
11444;BME280;5778;47.856;12.154;2023-03-21T05:56:58;96429.41;;;8.10;100.00
11444;BME280;5778;47.856;12.154;2023-03-21T05:59:54;96429.97;;;8.12;100.00
11444;BME280;5778;47.856;12.154;2023-03-21T06:02:21;96434.50;;;8.12;100.00
11444;BME280;5778;47.856;12.154;2023-03-21T06:05:00;96438.16;;;8.11;100.00
11444;BME280;5778;47.856;12.154;2023-03-21T06:07:28;96434.22;;;8.13;100.00
11444;BME280;5778;47.856;12.154;2023-03-21T06:09:55;96430.44;;;8.21;100.00
11444;BME280;5778;47.856;12.154;2023-03-21T06:12:22;96432.06;;;8.10;100.00
11444;BME280;5778;47.856;12.154;2023-03-21T06:15:23;96434.06;;;7.92;100.00
11444;BME280;5778;47.856;12.154;2023-03-21T06:18:00;96435.75;;;7.98;100.00
11444;BME280;5778;47.856;12.154;2023-03-21T06:20:28;96438.41;;;8.21;100.00
11444;BME280;5778;47.856;12.154;2023-03-21T06:23:27;96437.88;;;8.35;100.00
11444;BME280;5778;47.856;12.154;2023-03-21T06:25:54;96441.34;;;8.36;100.00
11444;BME280;5778;47.856;12.154;2023-03-21T06:28:24;96434.44;;;8.35;100.00
11444;BME280;5778;47.856;12.154;2023-03-21T06:30:51;96443.56;;;8.39;100.00
11444;BME280;5778;47.856;12.154;2023-03-21T06:33:50;96443.44;;;8.34;100.00
11444;BME280;5778;47.856;12.154;2023-03-21T06:36:17;96442.94;;;8.48;100.00
11444;BME280;5778;47.856;12.154;2023-03-21T06:38:46;96443.81;;;8.54;100.00
11444;BME280;5778;47.856;12.154;2023-03-21T06:41:14;96449.63;;;8.51;100.00
11444;BME280;5778;47.856;12.154;2023-03-21T06:43:51;96452.22;;;8.62;100.00
11444;BME280;5778;47.856;12.154;2023-03-21T06:46:18;96446.16;;;8.78;100.00
11444;BME280;5778;47.856;12.154;2023-03-21T06:48:46;96456.06;;;8.83;100.00
11444;BME280;5778;47.856;12.154;2023-03-21T06:51:14;96448.44;;;8.86;100.00
11444;BME280;5778;47.856;12.154;2023-03-21T06:54:21;96441.78;;;9.00;100.00
11444;BME280;5778;47.856;12.154;2023-03-21T06:57:01;96446.22;;;9.11;100.00
11444;BME280;5778;47.856;12.154;2023-03-21T06:59:32;96442.22;;;9.25;100.00
11444;BME280;5778;47.856;12.154;2023-03-21T07:02:03;96445.91;;;9.24;100.00
11444;BME280;5778;47.856;12.154;2023-03-21T07:07:57;96450.09;;;9.53;100.00
11444;BME280;5778;47.856;12.154;2023-03-21T07:10:28;96444.63;;;9.60;100.00
11444;BME280;5778;47.856;12.154;2023-03-21T07:13:26;96456.81;;;9.77;100.00
11444;BME280;5778;47.856;12.154;2023-03-21T07:16:00;96458.09;;;9.91;100.00
11444;BME280;5778;47.856;12.154;2023-03-21T07:18:27;96448.59;;;9.95;100.00
11444;BME280;5778;47.856;12.154;2023-03-21T07:20:55;96457.44;;;10.01;100.00
11444;BME280;5778;47.856;12.154;2023-03-21T07:26:44;96459.78;;;10.14;100.00
11444;BME280;5778;47.856;12.154;2023-03-21T07:29:12;96464.13;;;10.41;100.00
11444;BME280;5778;47.856;12.154;2023-03-21T07:31:39;96449.91;;;10.52;100.00
11444;BME280;5778;47.856;12.154;2023-03-21T07:34:20;96456.69;;;10.65;100.00
11444;BME280;5778;47.856;12.154;2023-03-21T07:36:47;96459.63;;;10.42;100.00
11444;BME280;5778;47.856;12.154;2023-03-21T07:39:15;96466.13;;;10.13;100.00
11444;BME280;5778;47.856;12.154;2023-03-21T07:41:45;96458.22;;;10.18;100.00
11444;BME280;5778;47.856;12.154;2023-03-21T07:44:24;96456.00;;;10.10;100.00
11444;BME280;5778;47.856;12.154;2023-03-21T07:47:00;96461.63;;;10.13;100.00
11444;BME280;5778;47.856;12.154;2023-03-21T07:49:27;96459.59;;;10.20;100.00
11444;BME280;5778;47.856;12.154;2023-03-21T07:51:55;96459.19;;;10.28;100.00
11444;BME280;5778;47.856;12.154;2023-03-21T07:54:30;96465.41;;;10.39;100.00
11444;BME280;5778;47.856;12.154;2023-03-21T07:56:59;96459.97;;;10.29;100.00
11444;BME280;5778;47.856;12.154;2023-03-21T07:59:26;96468.09;;;10.60;100.00
11444;BME280;5778;47.856;12.154;2023-03-21T08:01:53;96462.50;;;10.62;100.00
11444;BME280;5778;47.856;12.154;2023-03-21T08:04:30;96463.88;;;10.43;100.00
11444;BME280;5778;47.856;12.154;2023-03-21T08:06:59;96455.53;;;10.56;100.00
11444;BME280;5778;47.856;12.154;2023-03-21T08:09:26;96455.75;;;10.76;100.00
11444;BME280;5778;47.856;12.154;2023-03-21T08:11:53;96457.28;;;10.93;100.00
11444;BME280;5778;47.856;12.154;2023-03-21T08:14:24;96452.66;;;11.10;100.00
11444;BME280;5778;47.856;12.154;2023-03-21T08:16:51;96444.69;;;11.42;100.00
11444;BME280;5778;47.856;12.154;2023-03-21T08:19:18;96448.22;;;11.47;100.00
11444;BME280;5778;47.856;12.154;2023-03-21T08:21:46;96456.91;;;11.64;100.00
11444;BME280;5778;47.856;12.154;2023-03-21T08:24:32;96450.28;;;11.72;100.00
11444;BME280;5778;47.856;12.154;2023-03-21T08:26:59;96451.69;;;11.79;100.00
11444;BME280;5778;47.856;12.154;2023-03-21T08:29:28;96444.50;;;11.85;100.00
11444;BME280;5778;47.856;12.154;2023-03-21T08:31:55;96448.78;;;11.86;100.00
11444;BME280;5778;47.856;12.154;2023-03-21T08:37:45;96439.22;;;11.90;100.00
11444;BME280;5778;47.856;12.154;2023-03-21T08:40:13;96441.41;;;12.03;100.00
11444;BME280;5778;47.856;12.154;2023-03-21T08:42:43;96444.75;;;12.25;100.00
11444;BME280;5778;47.856;12.154;2023-03-21T08:45:13;96439.97;;;12.27;100.00
11444;BME280;5778;47.856;12.154;2023-03-21T08:47:40;96441.69;;;12.53;100.00
11444;BME280;5778;47.856;12.154;2023-03-21T08:50:10;96443.31;;;12.59;100.00
11444;BME280;5778;47.856;12.154;2023-03-21T08:52:37;96434.72;;;12.42;100.00
11444;BME280;5778;47.856;12.154;2023-03-21T08:55:04;96432.03;;;12.47;100.00
11444;BME280;5778;47.856;12.154;2023-03-21T08:57:31;96435.28;;;12.54;100.00
11444;BME280;5778;47.856;12.154;2023-03-21T08:59:58;96434.41;;;12.38;100.00
11444;BME280;5778;47.856;12.154;2023-03-21T09:02:26;96427.75;;;12.41;100.00
11444;BME280;5778;47.856;12.154;2023-03-21T09:04:55;96434.16;;;12.40;100.00
11444;BME280;5778;47.856;12.154;2023-03-21T09:07:23;96434.44;;;12.48;100.00
11444;BME280;5778;47.856;12.154;2023-03-21T09:09:51;96431.94;;;12.22;100.00
11444;BME280;5778;47.856;12.154;2023-03-21T09:12:18;96433.66;;;12.48;100.00
11444;BME280;5778;47.856;12.154;2023-03-21T09:14:53;96431.09;;;12.83;100.00
11444;BME280;5778;47.856;12.154;2023-03-21T09:17:20;96423.91;;;12.78;100.00
11444;BME280;5778;47.856;12.154;2023-03-21T09:19:48;96425.84;;;12.98;100.00
11444;BME280;5778;47.856;12.154;2023-03-21T09:22:17;96426.94;;;13.02;100.00
11444;BME280;5778;47.856;12.154;2023-03-21T09:24:54;96429.53;;;12.92;100.00
11444;BME280;5778;47.856;12.154;2023-03-21T09:27:21;96425.56;;;13.04;100.00
11444;BME280;5778;47.856;12.154;2023-03-21T09:29:52;96429.78;;;12.90;100.00
11444;BME280;5778;47.856;12.154;2023-03-21T09:32:20;96431.50;;;12.45;100.00
11444;BME280;5778;47.856;12.154;2023-03-21T09:34:54;96428.91;;;12.60;100.00
11444;BME280;5778;47.856;12.154;2023-03-21T09:37:22;96431.56;;;12.55;100.00
11444;BME280;5778;47.856;12.154;2023-03-21T09:39:49;96426.72;;;12.52;100.00
11444;BME280;5778;47.856;12.154;2023-03-21T09:42:25;96428.84;;;12.45;100.00
11444;BME280;5778;47.856;12.154;2023-03-21T09:45:07;96428.56;;;12.41;100.00
11444;BME280;5778;47.856;12.154;2023-03-21T09:47:39;96419.31;;;12.59;100.00
11444;BME280;5778;47.856;12.154;2023-03-21T09:50:17;96408.13;;;12.72;100.00
11444;BME280;5778;47.856;12.154;2023-03-21T09:56:10;96410.00;;;12.76;100.00
11444;BME280;5778;47.856;12.154;2023-03-21T09:58:40;96403.69;;;13.02;100.00
11444;BME280;5778;47.856;12.154;2023-03-21T10:01:13;96400.75;;;13.29;100.00
11444;BME280;5778;47.856;12.154;2023-03-21T10:03:48;96399.47;;;13.26;100.00
11444;BME280;5778;47.856;12.154;2023-03-21T10:06:18;96395.44;;;13.54;100.00
11444;BME280;5778;47.856;12.154;2023-03-21T10:08:55;96389.03;;;13.30;100.00
11444;BME280;5778;47.856;12.154;2023-03-21T10:11:26;96390.28;;;12.92;100.00
11444;BME280;5778;47.856;12.154;2023-03-21T10:14:21;96384.75;;;13.29;100.00
11444;BME280;5778;47.856;12.154;2023-03-21T10:16:54;96384.75;;;13.49;100.00
11444;BME280;5778;47.856;12.154;2023-03-21T10:19:23;96381.00;;;13.55;100.00
11444;BME280;5778;47.856;12.154;2023-03-21T10:21:54;96383.63;;;13.90;100.00
11444;BME280;5778;47.856;12.154;2023-03-21T10:24:31;96387.31;;;14.04;100.00
11444;BME280;5778;47.856;12.154;2023-03-21T10:27:00;96385.00;;;13.77;100.00
11444;BME280;5778;47.856;12.154;2023-03-21T10:29:31;96376.69;;;13.89;100.00
11444;BME280;5778;47.856;12.154;2023-03-21T10:32:01;96367.75;;;14.18;100.00
11444;BME280;5778;47.856;12.154;2023-03-21T10:34:41;96362.19;;;14.05;100.00
11444;BME280;5778;47.856;12.154;2023-03-21T10:37:11;96376.03;;;14.32;100.00
11444;BME280;5778;47.856;12.154;2023-03-21T10:39:40;96379.75;;;14.36;100.00
11444;BME280;5778;47.856;12.154;2023-03-21T10:42:16;96373.25;;;14.57;100.00
11444;BME280;5778;47.856;12.154;2023-03-21T10:44:46;96375.41;;;14.55;100.00
11444;BME280;5778;47.856;12.154;2023-03-21T10:47:19;96373.94;;;14.24;100.00
11444;BME280;5778;47.856;12.154;2023-03-21T10:49:47;96365.00;;;14.43;100.00
11444;BME280;5778;47.856;12.154;2023-03-21T10:52:18;96377.88;;;14.41;100.00
11444;BME280;5778;47.856;12.154;2023-03-21T10:55:04;96371.78;;;14.79;100.00
11444;BME280;5778;47.856;12.154;2023-03-21T10:57:34;96379.09;;;14.64;100.00
11444;BME280;5778;47.856;12.154;2023-03-21T11:00:04;96369.09;;;14.21;100.00
11444;BME280;5778;47.856;12.154;2023-03-21T11:02:47;96369.06;;;14.31;100.00
11444;BME280;5778;47.856;12.154;2023-03-21T11:05:18;96368.81;;;14.81;100.00
11444;BME280;5778;47.856;12.154;2023-03-21T11:07:56;96362.31;;;15.30;100.00
11444;BME280;5778;47.856;12.154;2023-03-21T11:10:29;96363.19;;;15.54;100.00
11444;BME280;5778;47.856;12.154;2023-03-21T11:13:01;96356.97;;;15.64;100.00
11444;BME280;5778;47.856;12.154;2023-03-21T11:15:32;96346.97;;;15.98;97.73
11444;BME280;5778;47.856;12.154;2023-03-21T11:18:13;96352.06;;;15.71;92.94
11444;BME280;5778;47.856;12.154;2023-03-21T11:20:47;96346.66;;;15.76;95.82
11444;BME280;5778;47.856;12.154;2023-03-21T11:23:16;96347.75;;;15.75;96.63
11444;BME280;5778;47.856;12.154;2023-03-21T11:25:48;96350.56;;;15.60;96.57
11444;BME280;5778;47.856;12.154;2023-03-21T11:28:18;96343.25;;;15.42;100.00
11444;BME280;5778;47.856;12.154;2023-03-21T11:30:52;96337.53;;;15.48;94.60
11444;BME280;5778;47.856;12.154;2023-03-21T11:33:21;96327.38;;;15.45;95.92
11444;BME280;5778;47.856;12.154;2023-03-21T11:35:59;96326.25;;;15.80;96.95
11444;BME280;5778;47.856;12.154;2023-03-21T11:38:31;96322.94;;;15.59;94.53
11444;BME280;5778;47.856;12.154;2023-03-21T11:40:59;96319.31;;;15.74;91.01
11444;BME280;5778;47.856;12.154;2023-03-21T11:43:29;96313.13;;;15.78;92.34
11444;BME280;5778;47.856;12.154;2023-03-21T11:45:59;96312.75;;;16.32;91.75
11444;BME280;5778;47.856;12.154;2023-03-21T11:48:27;96308.97;;;16.75;88.36
11444;BME280;5778;47.856;12.154;2023-03-21T11:50:58;96305.03;;;16.67;84.18
11444;BME280;5778;47.856;12.154;2023-03-21T11:53:34;96308.41;;;17.10;81.98
11444;BME280;5778;47.856;12.154;2023-03-21T11:56:19;96304.94;;;16.12;83.22
11444;BME280;5778;47.856;12.154;2023-03-21T11:59:01;96295.03;;;16.91;83.81
11444;BME280;5778;47.856;12.154;2023-03-21T12:01:37;96295.44;;;16.98;85.97
11444;BME280;5778;47.856;12.154;2023-03-21T12:04:19;96289.19;;;17.35;83.82
11444;BME280;5778;47.856;12.154;2023-03-21T12:06:53;96279.34;;;17.62;77.40
11444;BME280;5778;47.856;12.154;2023-03-21T12:09:36;96289.47;;;17.65;73.83
11444;BME280;5778;47.856;12.154;2023-03-21T12:12:21;96272.84;;;17.50;80.51
11444;BME280;5778;47.856;12.154;2023-03-21T12:15:07;96276.25;;;18.09;71.60
11444;BME280;5778;47.856;12.154;2023-03-21T12:17:42;96265.47;;;17.55;73.66
11444;BME280;5778;47.856;12.154;2023-03-21T12:20:37;96259.72;;;16.98;82.93
11444;BME280;5778;47.856;12.154;2023-03-21T12:23:38;96245.69;;;17.33;77.92
11444;BME280;5778;47.856;12.154;2023-03-21T12:26:18;96249.63;;;17.08;84.09
11444;BME280;5778;47.856;12.154;2023-03-21T12:28:58;96243.19;;;17.55;84.57
11444;BME280;5778;47.856;12.154;2023-03-21T12:31:39;96240.97;;;18.11;77.36
11444;BME280;5778;47.856;12.154;2023-03-21T12:34:22;96223.38;;;18.54;70.17
11444;BME280;5778;47.856;12.154;2023-03-21T12:37:01;96229.88;;;18.97;68.56
11444;BME280;5778;47.856;12.154;2023-03-21T12:39:33;96225.22;;;18.04;66.46
11444;BME280;5778;47.856;12.154;2023-03-21T12:42:29;96213.59;;;18.58;71.42
11444;BME280;5778;47.856;12.154;2023-03-21T12:45:07;96220.38;;;18.77;61.04
11444;BME280;5778;47.856;12.154;2023-03-21T12:47:40;96220.03;;;17.94;60.47
11444;BME280;5778;47.856;12.154;2023-03-21T12:50:14;96213.41;;;18.41;61.91
11444;BME280;5778;47.856;12.154;2023-03-21T12:52:43;96205.53;;;18.44;67.54
11444;BME280;5778;47.856;12.154;2023-03-21T12:55:17;96208.75;;;18.19;65.96
11444;BME280;5778;47.856;12.154;2023-03-21T12:57:48;96200.81;;;18.50;66.50
11444;BME280;5778;47.856;12.154;2023-03-21T13:00:21;96193.91;;;19.01;66.29
11444;BME280;5778;47.856;12.154;2023-03-21T13:03:00;96196.22;;;19.38;61.22
11444;BME280;5778;47.856;12.154;2023-03-21T13:05:29;96187.63;;;19.14;58.97
11444;BME280;5778;47.856;12.154;2023-03-21T13:08:02;96194.84;;;18.97;59.24
11444;BME280;5778;47.856;12.154;2023-03-21T13:10:32;96191.03;;;18.98;60.51
11444;BME280;5778;47.856;12.154;2023-03-21T13:13:21;96186.50;;;19.07;55.89
11444;BME280;5778;47.856;12.154;2023-03-21T13:16:01;96184.63;;;19.16;52.65
11444;BME280;5778;47.856;12.154;2023-03-21T13:18:37;96184.00;;;19.41;52.70
11444;BME280;5778;47.856;12.154;2023-03-21T13:21:12;96181.00;;;19.12;51.37
11444;BME280;5778;47.856;12.154;2023-03-21T13:23:57;96186.16;;;18.78;51.86
11444;BME280;5778;47.856;12.154;2023-03-21T13:26:32;96171.31;;;19.80;51.38
11444;BME280;5778;47.856;12.154;2023-03-21T13:29:11;96170.03;;;18.42;52.14
11444;BME280;5778;47.856;12.154;2023-03-21T13:31:43;96168.72;;;19.28;51.61
11444;BME280;5778;47.856;12.154;2023-03-21T13:34:13;96167.63;;;19.68;49.52
11444;BME280;5778;47.856;12.154;2023-03-21T13:36:44;96163.97;;;19.03;50.11
11444;BME280;5778;47.856;12.154;2023-03-21T13:39:24;96161.63;;;18.08;51.95
11444;BME280;5778;47.856;12.154;2023-03-21T13:41:53;96152.69;;;19.23;50.05
11444;BME280;5778;47.856;12.154;2023-03-21T13:44:40;96159.97;;;18.70;48.88
11444;BME280;5778;47.856;12.154;2023-03-21T13:47:34;96148.94;;;19.97;47.26
11444;BME280;5778;47.856;12.154;2023-03-21T13:50:25;96156.34;;;20.47;45.56
11444;BME280;5778;47.856;12.154;2023-03-21T13:53:20;96146.97;;;20.36;44.00
11444;BME280;5778;47.856;12.154;2023-03-21T13:55:58;96144.06;;;21.01;43.10
11444;BME280;5778;47.856;12.154;2023-03-21T13:58:35;96142.13;;;21.10;42.58
11444;BME280;5778;47.856;12.154;2023-03-21T14:01:19;96144.88;;;20.93;42.90
11444;BME280;5778;47.856;12.154;2023-03-21T14:03:56;96140.75;;;20.19;44.66